createdAt,value
2022-10-23T00:03:00.319Z,98630.16
2022-10-23T00:06:05.211Z,98629.66
2022-10-23T00:09:11.010Z,98633.56
2022-10-23T00:12:14.415Z,98630.75
2022-10-23T00:15:20.679Z,98623.22
2022-10-23T00:18:25.614Z,98618.19
2022-10-23T00:21:29.433Z,98619.91
2022-10-23T00:24:32.727Z,98635.03
2022-10-23T00:27:36.679Z,98627.53
2022-10-23T00:30:40.038Z,98628.63
2022-10-23T00:33:45.839Z,98629.09
2022-10-23T00:36:49.390Z,98625.03
2022-10-23T00:39:53.440Z,98615.06
2022-10-23T00:42:56.923Z,98622.41
2022-10-23T00:46:00.815Z,98619.78
2022-10-23T00:49:07.411Z,98625.09
2022-10-23T00:52:14.468Z,98613.31
2022-10-23T00:55:20.768Z,98610.97
2022-10-23T00:58:24.743Z,98601.69
2022-10-23T01:01:28.417Z,98601.84
2022-10-23T01:04:34.429Z,98614.50
2022-10-23T01:07:51.516Z,98618.28
2022-10-23T01:11:05.090Z,98612.66
2022-10-23T01:14:24.538Z,98619.44
2022-10-23T01:17:39.630Z,98631.06
2022-10-23T01:20:54.443Z,98623.03
2022-10-23T01:24:26.813Z,98621.81
2022-10-23T01:27:37.104Z,98613.94
2022-10-23T01:30:45.464Z,98618.75
2022-10-23T01:33:57.564Z,98625.34
2022-10-23T01:37:08.121Z,98619.72
2022-10-23T01:40:21.430Z,98626.13
2022-10-23T01:43:31.592Z,98626.13
2022-10-23T01:46:37.590Z,98636.91
2022-10-23T01:49:45.763Z,98628.97
2022-10-23T01:52:49.186Z,98626.19
2022-10-23T01:55:56.657Z,98618.50
2022-10-23T01:59:06.739Z,98617.75
2022-10-23T02:02:16.529Z,98625.03
2022-10-23T02:05:25.387Z,98627.97
2022-10-23T02:08:29.249Z,98623.56
2022-10-23T02:11:38.880Z,98622.75
2022-10-23T02:14:51.724Z,98617.47
2022-10-23T02:18:04.439Z,98624.47
2022-10-23T02:21:12.598Z,98633.28
2022-10-23T02:24:21.440Z,98635.38
2022-10-23T02:27:30.613Z,98622.94
2022-10-23T02:30:39.420Z,98625.56
2022-10-23T02:33:48.859Z,98637.22
2022-10-23T02:36:52.422Z,98637.03
2022-10-23T02:39:58.944Z,98638.13
2022-10-23T02:43:15.031Z,98639.66
2022-10-23T02:46:29.809Z,98638.19
2022-10-23T02:49:41.228Z,98643.13
2022-10-23T02:52:57.346Z,98659.59
2022-10-23T02:56:08.599Z,98648.88
2022-10-23T02:59:21.452Z,98643.81
2022-10-23T03:05:40.732Z,98643.94
2022-10-23T03:08:45.556Z,98665.28
2022-10-23T03:11:49.225Z,98652.31
2022-10-23T03:14:52.960Z,98654.44
2022-10-23T03:17:58.020Z,98648.19
2022-10-23T03:21:01.427Z,98658.16
2022-10-23T03:24:05.640Z,98660.19
2022-10-23T03:27:14.863Z,98667.38
2022-10-23T03:30:18.962Z,98660.47
2022-10-23T03:33:28.014Z,98670.75
2022-10-23T03:36:31.647Z,98668.59
2022-10-23T03:39:35.287Z,98676.84
2022-10-23T03:42:39.192Z,98676.53
2022-10-23T03:45:42.637Z,98678.59
2022-10-23T03:48:47.927Z,98678.84
2022-10-23T03:51:52.739Z,98690.16
2022-10-23T03:54:57.841Z,98692.97
2022-10-23T03:58:01.365Z,98696.34
2022-10-23T04:01:04.982Z,98690.25
2022-10-23T04:04:09.951Z,98692.13
2022-10-23T04:07:13.842Z,98688.25
2022-10-23T04:10:17.318Z,98677.13
2022-10-23T04:13:21.190Z,98697.97
2022-10-23T04:16:25.231Z,98703.72
2022-10-23T04:19:30.205Z,98694.25
2022-10-23T04:22:37.050Z,98696.72
2022-10-23T04:25:41.493Z,98701.38
2022-10-23T04:28:45.259Z,98697.31
2022-10-23T04:31:49.063Z,98704.38
2022-10-23T04:34:55.074Z,98701.66
2022-10-23T04:37:59.939Z,98698.41
2022-10-23T04:41:03.498Z,98700.31
2022-10-23T04:44:07.202Z,98709.63
2022-10-23T04:47:16.952Z,98702.44
2022-10-23T04:50:32.970Z,98699.34
2022-10-23T04:53:52.114Z,98714.03
2022-10-23T04:57:19.665Z,98702.03
2022-10-23T05:00:37.663Z,98700.69
2022-10-23T05:03:41.344Z,98711.97
2022-10-23T05:06:46.396Z,98714.47
2022-10-23T05:10:12.789Z,98711.94
2022-10-23T05:13:24.429Z,98704.47
2022-10-23T05:16:36.496Z,98708.69
2022-10-23T05:19:44.906Z,98714.59
2022-10-23T05:22:54.147Z,98717.69
2022-10-23T05:26:03.193Z,98714.56
2022-10-23T05:29:09.259Z,98706.81
2022-10-23T05:32:15.939Z,98715.63
2022-10-23T05:35:23.530Z,98718.31
2022-10-23T05:38:33.751Z,98714.75
2022-10-23T05:41:42.574Z,98732.47
2022-10-23T05:44:46.324Z,98731.31
2022-10-23T05:48:30.067Z,98727.97
2022-10-23T05:51:56.360Z,98737.66
2022-10-23T05:55:19.574Z,98737.91
2022-10-23T05:58:35.154Z,98740.88
2022-10-23T06:01:50.378Z,98745.56
2022-10-23T06:05:08.834Z,98742.91
2022-10-23T06:08:12.648Z,98739.78
2022-10-23T06:11:18.839Z,98734.00
2022-10-23T06:14:32.787Z,98743.00
2022-10-23T06:17:36.561Z,98752.47
2022-10-23T06:20:42.411Z,98758.94
2022-10-23T06:23:52.020Z,98763.56
2022-10-23T06:27:32.737Z,98764.31
2022-10-23T06:30:55.031Z,98772.25
2022-10-23T06:34:00.762Z,98773.28
2022-10-23T06:37:07.216Z,98773.97
2022-10-23T06:40:31.652Z,98776.13
2022-10-23T06:43:39.777Z,98774.41
2022-10-23T06:47:00.290Z,98774.66
2022-10-23T06:50:27.371Z,98783.19
2022-10-23T06:53:31.087Z,98785.63
2022-10-23T06:56:43.200Z,98793.25
2022-10-23T06:59:50.007Z,98799.91
2022-10-23T07:02:54.591Z,98788.81
2022-10-23T07:06:01.631Z,98795.44
2022-10-23T07:09:05.674Z,98790.19
2022-10-23T07:12:29.485Z,98799.03
2022-10-23T07:16:13.878Z,98795.38
2022-10-23T07:19:18.163Z,98785.97
2022-10-23T07:22:35.420Z,98792.00
2022-10-23T07:25:45.349Z,98789.28
2022-10-23T07:28:57.088Z,98793.25
2022-10-23T07:32:04.604Z,98785.69
2022-10-23T07:35:17.262Z,98786.75
2022-10-23T07:38:35.924Z,98783.59
2022-10-23T07:41:39.546Z,98787.72
2022-10-23T07:44:43.839Z,98786.13
2022-10-23T07:47:53.358Z,98789.09
2022-10-23T07:51:03.218Z,98785.13
2022-10-23T07:54:11.743Z,98774.19
2022-10-23T07:57:34.123Z,98772.69
2022-10-23T08:01:05.938Z,98777.84
2022-10-23T08:04:14.806Z,98770.78
2022-10-23T08:07:29.511Z,98782.59
2022-10-23T08:10:35.202Z,98778.03
2022-10-23T08:13:39.285Z,98783.47
2022-10-23T08:16:44.168Z,98789.19
2022-10-23T08:19:54.687Z,98781.03
2022-10-23T08:22:58.804Z,98789.06
2022-10-23T08:26:05.576Z,98782.47
2022-10-23T08:29:09.513Z,98775.00
2022-10-23T08:32:13.288Z,98777.13
2022-10-23T08:35:32.441Z,98786.22
2022-10-23T08:38:36.253Z,98791.94
2022-10-23T08:41:48.596Z,98775.91
2022-10-23T08:45:02.851Z,98781.31
2022-10-23T08:48:19.771Z,98779.09
2022-10-23T08:51:53.501Z,98785.34
2022-10-23T08:55:16.100Z,98780.19
2022-10-23T08:58:29.421Z,98781.84
2022-10-23T09:01:43.671Z,98786.50
2022-10-23T09:04:49.842Z,98782.22
2022-10-23T09:08:08.890Z,98787.56
2022-10-23T09:11:23.771Z,98788.91
2022-10-23T09:14:42.346Z,98789.00
2022-10-23T09:17:47.848Z,98797.31
2022-10-23T09:20:54.132Z,98788.16
2022-10-23T09:23:58.963Z,98789.91
2022-10-23T09:30:07.829Z,98789.13
2022-10-23T09:33:18.051Z,98793.22
2022-10-23T09:36:24.269Z,98787.94
2022-10-23T09:39:32.062Z,98778.19
2022-10-23T09:42:35.912Z,98781.59
2022-10-23T09:45:42.629Z,98772.72
2022-10-23T09:49:00.883Z,98760.66
2022-10-23T09:52:25.271Z,98760.66
2022-10-23T09:55:30.776Z,98763.25
2022-10-23T09:58:38.195Z,98765.63
2022-10-23T10:01:49.337Z,98763.59
2022-10-23T10:05:25.050Z,98761.56
2022-10-23T10:08:40.501Z,98751.09
2022-10-23T10:11:51.099Z,98751.53
2022-10-23T10:15:04.528Z,98746.97
2022-10-23T10:18:17.105Z,98739.78
2022-10-23T10:21:26.307Z,98740.69
2022-10-23T10:24:35.905Z,98727.34
2022-10-23T10:27:53.812Z,98735.84
2022-10-23T10:31:10.004Z,98726.63
2022-10-23T10:34:19.243Z,98724.13
2022-10-23T10:37:36.195Z,98723.63
2022-10-23T10:40:44.306Z,98725.75
2022-10-23T10:44:03.222Z,98726.84
2022-10-23T10:47:18.501Z,98715.91
2022-10-23T10:50:31.261Z,98721.31
2022-10-23T10:54:07.645Z,98719.81
2022-10-23T10:57:22.029Z,98718.31
2022-10-23T11:00:29.790Z,98714.44
2022-10-23T11:03:41.232Z,98710.38
2022-10-23T11:06:50.214Z,98703.78
2022-10-23T11:09:55.977Z,98695.34
2022-10-23T11:13:01.107Z,98694.88
2022-10-23T11:16:12.926Z,98689.22
2022-10-23T11:19:22.586Z,98673.88
2022-10-23T11:22:35.084Z,98679.03
2022-10-23T11:25:56.008Z,98674.16
2022-10-23T11:29:19.045Z,98669.81
2022-10-23T11:32:39.950Z,98663.19
2022-10-23T11:36:07.820Z,98665.50
2022-10-23T11:39:23.036Z,98657.09
2022-10-23T11:42:33.943Z,98648.69
2022-10-23T11:45:39.398Z,98635.88
2022-10-23T11:48:48.264Z,98633.84
2022-10-23T11:52:08.218Z,98631.28
2022-10-23T11:55:57.489Z,98631.53
2022-10-23T11:59:22.263Z,98624.34
2022-10-23T12:02:33.726Z,98613.09
2022-10-23T12:05:40.583Z,98612.56
2022-10-23T12:08:55.457Z,98609.50
2022-10-23T12:12:17.643Z,98611.56
2022-10-23T12:15:24.914Z,98613.38
2022-10-23T12:18:31.029Z,98606.22
2022-10-23T12:21:41.477Z,98601.31
2022-10-23T12:25:02.911Z,98596.94
2022-10-23T12:28:14.258Z,98587.97
2022-10-23T12:31:35.233Z,98583.06
2022-10-23T12:40:30.807Z,98574.31
2022-10-23T12:43:40.849Z,98574.88
2022-10-23T12:46:51.003Z,98568.44
2022-10-23T12:49:54.903Z,98566.38
2022-10-23T12:53:02.500Z,98563.31
2022-10-23T12:56:09.481Z,98553.53
2022-10-23T12:59:20.310Z,98559.69
2022-10-23T13:02:26.784Z,98549.94
2022-10-23T13:05:31.754Z,98553.50
2022-10-23T13:08:40.796Z,98557.38
2022-10-23T13:12:22.599Z,98550.94
2022-10-23T13:15:39.536Z,98542.47
2022-10-23T13:18:43.767Z,98536.81
2022-10-23T13:21:47.811Z,98537.59
2022-10-23T13:24:52.224Z,98537.84
2022-10-23T13:28:21.443Z,98536.03
2022-10-23T13:31:40.985Z,98528.56
2022-10-23T13:35:03.715Z,98535.00
2022-10-23T13:38:16.297Z,98519.31
2022-10-23T13:41:21.663Z,98521.88
2022-10-23T13:44:26.516Z,98527.81
2022-10-23T13:47:31.897Z,98520.09
2022-10-23T13:50:37.670Z,98518.28
2022-10-23T13:53:41.469Z,98523.97
2022-10-23T13:56:47.367Z,98519.31
2022-10-23T13:59:54.185Z,98510.31
2022-10-23T14:03:01.028Z,98511.09
2022-10-23T14:06:07.910Z,98509.81
2022-10-23T14:09:15.035Z,98509.31
2022-10-23T14:12:19.498Z,98502.88
2022-10-23T14:15:24.113Z,98506.22
2022-10-23T14:18:30.479Z,98508.00
2022-10-23T14:21:34.921Z,98512.59
2022-10-23T14:24:39.739Z,98505.44
2022-10-23T14:27:43.826Z,98500.03
2022-10-23T14:30:47.387Z,98499.78
2022-10-23T14:33:56.995Z,98501.34
2022-10-23T14:37:08.791Z,98495.44
2022-10-23T14:40:13.790Z,98494.91
2022-10-23T14:43:17.395Z,98493.13
2022-10-23T14:46:23.611Z,98494.91
2022-10-23T14:49:28.702Z,98501.34
2022-10-23T14:52:32.716Z,98486.41
2022-10-23T14:55:36.527Z,98492.31
2022-10-23T14:58:42.680Z,98488.47
2022-10-23T15:01:48.616Z,98489.00
2022-10-23T15:04:54.683Z,98487.72
2022-10-23T15:07:59.196Z,98498.75
2022-10-23T15:11:05.708Z,98494.13
2022-10-23T15:14:11.800Z,98484.91
2022-10-23T15:17:16.258Z,98489.00
2022-10-23T15:20:23.694Z,98486.19
2022-10-23T15:23:27.638Z,98479.25
2022-10-23T15:26:32.427Z,98482.31
2022-10-23T15:29:36.509Z,98486.19
2022-10-23T15:32:40.552Z,98487.44
2022-10-23T15:35:46.115Z,98495.16
2022-10-23T15:38:50.307Z,98483.59
2022-10-23T15:41:58.207Z,98492.03
2022-10-23T15:45:02.585Z,98494.59
2022-10-23T15:48:08.942Z,98483.81
2022-10-23T15:51:15.663Z,98488.41
2022-10-23T15:54:26.962Z,98490.19
2022-10-23T15:57:32.996Z,98489.38
2022-10-23T16:00:38.458Z,98497.06
2022-10-23T16:03:43.919Z,98488.31
2022-10-23T16:06:52.024Z,98494.16
2022-10-23T16:09:56.557Z,98504.16
2022-10-23T16:13:01.073Z,98507.22
2022-10-23T16:16:05.038Z,98504.63
2022-10-23T16:19:08.929Z,98516.41
2022-10-23T16:22:15.112Z,98513.44
2022-10-23T16:25:19.166Z,98515.19
2022-10-23T16:28:23.048Z,98510.28
2022-10-23T16:31:27.738Z,98521.69
2022-10-23T16:34:31.351Z,98521.09
2022-10-23T16:37:37.006Z,98525.25
2022-10-23T16:40:52.030Z,98531.59
2022-10-23T16:44:18.810Z,98533.19
2022-10-23T16:47:43.066Z,98538.13
2022-10-23T16:50:47.370Z,98543.19
2022-10-23T16:53:52.952Z,98547.50
2022-10-23T16:56:58.832Z,98546.47
2022-10-23T17:00:02.536Z,98549.28
2022-10-23T17:03:10.898Z,98558.38
2022-10-23T17:06:18.176Z,98555.72
2022-10-23T17:09:23.727Z,98556.75
2022-10-23T17:12:30.410Z,98562.88
2022-10-23T17:15:34.542Z,98565.41
2022-10-23T17:18:42.877Z,98560.69
2022-10-23T17:21:49.998Z,98568.94
2022-10-23T17:24:55.020Z,98574.00
2022-10-23T17:27:59.641Z,98568.38
2022-10-23T17:31:04.392Z,98562.16
2022-10-23T17:34:12.023Z,98562.81
2022-10-23T17:37:17.429Z,98558.59
2022-10-23T17:40:33.085Z,98559.19
2022-10-23T17:43:37.439Z,98558.50
2022-10-23T17:46:41.410Z,98565.88
2022-10-23T17:49:46.162Z,98565.38
2022-10-23T17:52:50.542Z,98562.00
2022-10-23T17:55:55.940Z,98563.19
2022-10-23T17:59:03.458Z,98564.56
2022-10-23T18:02:08.574Z,98555.72
2022-10-23T18:05:13.180Z,98561.34
2022-10-23T18:08:17.803Z,98551.50
2022-10-23T18:11:26.142Z,98560.97
2022-10-23T18:14:31.709Z,98557.81
2022-10-23T18:17:36.880Z,98551.16
2022-10-23T18:20:42.010Z,98545.53
2022-10-23T18:23:46.402Z,98540.31
2022-10-23T18:26:52.764Z,98543.03
2022-10-23T18:29:58.867Z,98547.50
2022-10-23T18:33:03.258Z,98535.69
2022-10-23T18:36:18.698Z,98541.50
2022-10-23T18:39:29.375Z,98538.91
2022-10-23T18:42:37.762Z,98550.44
2022-10-23T18:45:43.927Z,98547.31
2022-10-23T18:48:50.725Z,98542.88
2022-10-23T18:51:56.382Z,98552.69
2022-10-23T18:55:00.675Z,98552.28
2022-10-23T18:58:05.930Z,98543.03
2022-10-23T19:01:25.876Z,98547.47
2022-10-23T19:04:35.555Z,98544.19
2022-10-23T19:07:45.744Z,98544.78
2022-10-23T19:10:54.055Z,98547.69
2022-10-23T19:13:59.114Z,98551.28
2022-10-23T19:17:07.837Z,98550.78
2022-10-23T19:20:15.688Z,98558.13
2022-10-23T19:23:19.928Z,98555.81
2022-10-23T19:26:23.770Z,98560.47
2022-10-23T19:29:31.632Z,98562.31
2022-10-23T19:32:37.323Z,98553.31
2022-10-23T19:35:41.157Z,98551.75
2022-10-23T19:38:45.061Z,98557.72
2022-10-23T19:41:51.720Z,98555.69
2022-10-23T19:44:57.842Z,98564.81
2022-10-23T19:48:01.637Z,98554.94
2022-10-23T19:51:09.807Z,98555.81
2022-10-23T19:54:13.793Z,98563.44
2022-10-23T19:57:19.320Z,98555.50
2022-10-23T20:00:29.099Z,98551.38
2022-10-23T20:03:33.432Z,98560.81
2022-10-23T20:06:38.784Z,98562.91
2022-10-23T20:09:43.047Z,98562.78
2022-10-23T20:12:56.402Z,98557.78
2022-10-23T20:16:09.065Z,98548.41
2022-10-23T20:19:14.934Z,98546.50
2022-10-23T20:22:19.601Z,98550.34
2022-10-23T20:25:23.221Z,98547.28
2022-10-23T20:28:27.523Z,98549.38
2022-10-23T20:31:36.694Z,98550.53
2022-10-23T20:34:41.476Z,98544.97
2022-10-23T20:37:45.923Z,98544.91
2022-10-23T20:40:50.451Z,98536.56
2022-10-23T20:43:56.804Z,98537.56
2022-10-23T20:47:02.435Z,98548.38
2022-10-23T20:50:06.787Z,98537.75
2022-10-23T20:53:11.430Z,98542.41
2022-10-23T20:56:18.561Z,98546.41
2022-10-23T20:59:22.786Z,98543.28
2022-10-23T21:02:30.193Z,98548.22
2022-10-23T21:05:36.188Z,98545.03
2022-10-23T21:08:41.210Z,98541.34
2022-10-23T21:11:45.374Z,98545.31
2022-10-23T21:14:49.105Z,98539.06
2022-10-23T21:17:56.867Z,98531.28
2022-10-23T21:21:03.310Z,98538.44
2022-10-23T21:24:09.778Z,98534.22
2022-10-23T21:27:15.228Z,98535.00
2022-10-23T21:30:20.591Z,98523.34
2022-10-23T21:33:26.145Z,98539.22
2022-10-23T21:36:32.227Z,98543.88
2022-10-23T21:39:37.640Z,98534.94
2022-10-23T21:42:41.451Z,98530.59
2022-10-23T21:45:45.025Z,98534.09
2022-10-23T21:48:52.995Z,98533.03
2022-10-23T21:51:57.820Z,98529.03
2022-10-23T21:55:02.747Z,98532.00
2022-10-23T21:58:08.072Z,98535.91
2022-10-23T22:01:14.844Z,98533.81
2022-10-23T22:04:22.238Z,98540.06
2022-10-23T22:07:26.121Z,98543.00
2022-10-23T22:10:29.654Z,98543.72
2022-10-23T22:13:33.804Z,98542.03
2022-10-23T22:16:44.610Z,98543.28
2022-10-23T22:19:50.044Z,98549.53
2022-10-23T22:22:53.610Z,98536.00
2022-10-23T22:25:57.732Z,98548.50
2022-10-23T22:29:03.285Z,98547.44
2022-10-23T22:32:08.687Z,98556.72
2022-10-23T22:35:14.045Z,98547.16
2022-10-23T22:38:18.000Z,98539.50
2022-10-23T22:41:22.183Z,98559.56
2022-10-23T22:44:27.204Z,98552.13
2022-10-23T22:47:31.683Z,98554.66
2022-10-23T22:50:37.338Z,98548.09
2022-10-23T22:53:41.081Z,98536.28
2022-10-23T22:56:45.106Z,98538.75
2022-10-23T22:59:48.686Z,98545.91
2022-10-23T23:02:52.647Z,98540.59
2022-10-23T23:05:58.491Z,98538.38
2022-10-23T23:09:03.014Z,98534.06
2022-10-23T23:12:07.135Z,98534.81
2022-10-23T23:15:11.318Z,98541.34
2022-10-23T23:18:15.201Z,98544.66
2022-10-23T23:21:21.022Z,98547.00
2022-10-23T23:24:24.887Z,98544.69
2022-10-23T23:27:28.838Z,98544.50
2022-10-23T23:30:35.212Z,98545.31
2022-10-23T23:33:39.492Z,98546.72
2022-10-23T23:36:46.916Z,98547.38
2022-10-23T23:39:50.937Z,98546.56
2022-10-23T23:42:54.531Z,98550.63
2022-10-23T23:45:59.743Z,98536.78
2022-10-23T23:49:03.446Z,98545.03
2022-10-23T23:52:09.895Z,98553.56
2022-10-23T23:55:14.507Z,98541.88
2022-10-23T23:58:19.870Z,98545.63
